sensor_id;sensor_type;location;lat;lon;timestamp;pressure;altitude;pressure_sealevel;temperature;humidity
67697;BME280;54486;51.442;6.778;2023-04-29T00:01:43;101088.78;;;11.67;100.00
67697;BME280;54486;51.442;6.778;2023-04-29T00:04:12;101087.06;;;11.61;100.00
67697;BME280;54486;51.442;6.778;2023-04-29T00:06:41;101115.00;;;11.58;100.00
67697;BME280;54486;51.442;6.778;2023-04-29T00:09:10;101107.13;;;11.61;100.00
67697;BME280;54486;51.442;6.778;2023-04-29T00:11:37;101103.75;;;11.44;100.00
67697;BME280;54486;51.442;6.778;2023-04-29T00:14:07;101108.13;;;11.39;100.00
67697;BME280;54486;51.442;6.778;2023-04-29T00:16:34;101108.13;;;11.33;100.00
67697;BME280;54486;51.442;6.778;2023-04-29T00:19:02;101116.88;;;11.32;100.00
67697;BME280;54486;51.442;6.778;2023-04-29T00:21:30;101120.34;;;11.31;100.00
67697;BME280;54486;51.442;6.778;2023-04-29T00:23:58;101116.94;;;11.18;100.00
67697;BME280;54486;51.442;6.778;2023-04-29T00:26:27;101111.75;;;11.13;100.00
67697;BME280;54486;51.442;6.778;2023-04-29T00:28:54;101118.69;;;11.14;100.00
67697;BME280;54486;51.442;6.778;2023-04-29T00:31:21;101113.47;;;11.14;100.00
67697;BME280;54486;51.442;6.778;2023-04-29T00:33:48;101120.41;;;11.19;100.00
67697;BME280;54486;51.442;6.778;2023-04-29T00:36:16;101125.66;;;11.12;100.00
67697;BME280;54486;51.442;6.778;2023-04-29T00:38:44;101129.13;;;11.11;100.00
67697;BME280;54486;51.442;6.778;2023-04-29T00:41:10;101136.09;;;11.19;100.00
67697;BME280;54486;51.442;6.778;2023-04-29T00:43:37;101139.59;;;11.08;100.00
67697;BME280;54486;51.442;6.778;2023-04-29T00:46:04;101133.50;;;11.08;100.00
67697;BME280;54486;51.442;6.778;2023-04-29T00:48:34;101144.00;;;11.00;100.00
67697;BME280;54486;51.442;6.778;2023-04-29T00:51:01;101147.44;;;11.05;100.00
67697;BME280;54486;51.442;6.778;2023-04-29T00:53:30;101148.34;;;10.95;100.00
67697;BME280;54486;51.442;6.778;2023-04-29T00:56:00;101160.56;;;10.90;100.00
67697;BME280;54486;51.442;6.778;2023-04-29T00:58:29;101144.03;;;10.87;100.00
67697;BME280;54486;51.442;6.778;2023-04-29T01:01:01;101153.59;;;10.83;100.00
67697;BME280;54486;51.442;6.778;2023-04-29T01:03:30;101149.28;;;10.81;100.00
67697;BME280;54486;51.442;6.778;2023-04-29T01:15:09;101162.31;;;10.76;100.00
67697;BME280;54486;51.442;6.778;2023-04-29T01:17:43;101159.69;;;10.87;100.00
67697;BME280;54486;51.442;6.778;2023-04-29T01:20:14;101164.06;;;10.77;100.00
67697;BME280;54486;51.442;6.778;2023-04-29T01:22:43;101167.53;;;10.76;100.00
67697;BME280;54486;51.442;6.778;2023-04-29T01:25:10;101164.03;;;10.79;100.00
67697;BME280;54486;51.442;6.778;2023-04-29T01:39:02;101179.75;;;10.62;100.00
67697;BME280;54486;51.442;6.778;2023-04-29T01:41:49;101184.09;;;10.65;100.00
67697;BME280;54486;51.442;6.778;2023-04-29T01:44:22;101187.56;;;10.53;100.00
67697;BME280;54486;51.442;6.778;2023-04-29T01:46:51;101187.56;;;10.53;100.00
67697;BME280;54486;51.442;6.778;2023-04-29T01:49:24;101190.19;;;10.50;100.00
67697;BME280;54486;51.442;6.778;2023-04-29T01:51:53;101191.06;;;10.43;100.00
67697;BME280;54486;51.442;6.778;2023-04-29T01:54:21;101184.97;;;10.47;100.00
67697;BME280;54486;51.442;6.778;2023-04-29T01:56:50;101187.59;;;10.42;100.00
67697;BME280;54486;51.442;6.778;2023-04-29T01:59:19;101193.69;;;10.40;100.00
67697;BME280;54486;51.442;6.778;2023-04-29T02:01:46;101197.16;;;10.39;100.00
67697;BME280;54486;51.442;6.778;2023-04-29T02:04:13;101196.28;;;10.32;100.00
67697;BME280;54486;51.442;6.778;2023-04-29T02:06:41;101198.03;;;10.36;100.00
67697;BME280;54486;51.442;6.778;2023-04-29T02:09:08;101210.19;;;10.31;100.00
67697;BME280;54486;51.442;6.778;2023-04-29T02:11:35;101198.03;;;10.30;100.00
67697;BME280;54486;51.442;6.778;2023-04-29T02:14:03;101208.44;;;10.29;100.00
67697;BME280;54486;51.442;6.778;2023-04-29T02:16:30;101209.34;;;10.34;100.00
67697;BME280;54486;51.442;6.778;2023-04-29T02:18:58;101210.19;;;10.25;100.00
67697;BME280;54486;51.442;6.778;2023-04-29T02:21:25;101215.41;;;10.24;100.00
67697;BME280;54486;51.442;6.778;2023-04-29T02:23:53;101218.03;;;10.24;100.00
67697;BME280;54486;51.442;6.778;2023-04-29T02:26:20;101226.69;;;10.23;100.00
67697;BME280;54486;51.442;6.778;2023-04-29T02:28:47;101230.16;;;10.19;100.00
67697;BME280;54486;51.442;6.778;2023-04-29T02:31:14;101227.56;;;10.19;100.00
67697;BME280;54486;51.442;6.778;2023-04-29T02:33:41;101232.78;;;10.22;100.00
67697;BME280;54486;51.442;6.778;2023-04-29T02:36:08;101225.81;;;10.22;100.00
67697;BME280;54486;51.442;6.778;2023-04-29T02:38:35;101229.28;;;10.18;100.00
67697;BME280;54486;51.442;6.778;2023-04-29T02:41:03;101230.16;;;10.16;100.00
67697;BME280;54486;51.442;6.778;2023-04-29T02:43:32;101233.66;;;10.15;100.00
67697;BME280;54486;51.442;6.778;2023-04-29T02:46:00;101244.91;;;10.10;100.00
67697;BME280;54486;51.442;6.778;2023-04-29T02:48:29;101245.75;;;10.03;100.00
67697;BME280;54486;51.442;6.778;2023-04-29T02:50:57;101244.88;;;10.03;100.00
67697;BME280;54486;51.442;6.778;2023-04-29T02:53:24;101251.00;;;10.05;100.00
67697;BME280;54486;51.442;6.778;2023-04-29T02:55:52;101244.91;;;10.10;100.00
67697;BME280;54486;51.442;6.778;2023-04-29T02:58:20;101254.44;;;9.99;100.00
67697;BME280;54486;51.442;6.778;2023-04-29T03:00:48;101250.94;;;9.99;100.00
67697;BME280;54486;51.442;6.778;2023-04-29T03:03:15;101254.41;;;9.96;100.00
67697;BME280;54486;51.442;6.778;2023-04-29T03:05:43;101259.63;;;9.96;100.00
67697;BME280;54486;51.442;6.778;2023-04-29T03:08:10;101254.41;;;9.96;100.00
67697;BME280;54486;51.442;6.778;2023-04-29T03:10:37;101255.31;;;9.95;100.00
67697;BME280;54486;51.442;6.778;2023-04-29T03:13:07;101256.16;;;9.91;100.00
67697;BME280;54486;51.442;6.778;2023-04-29T03:15:34;101257.91;;;9.95;100.00
67697;BME280;54486;51.442;6.778;2023-04-29T03:18:02;101263.09;;;9.89;100.00
67697;BME280;54486;51.442;6.778;2023-04-29T03:20:31;101268.28;;;9.89;100.00
67697;BME280;54486;51.442;6.778;2023-04-29T03:22:58;101270.94;;;9.94;100.00
67697;BME280;54486;51.442;6.778;2023-04-29T03:25:26;101270.03;;;9.87;100.00
67697;BME280;54486;51.442;6.778;2023-04-29T03:27:54;101277.00;;;9.88;100.00
67697;BME280;54486;51.442;6.778;2023-04-29T03:30:21;101277.00;;;9.85;100.00
67697;BME280;54486;51.442;6.778;2023-04-29T03:32:48;101283.09;;;9.89;100.00
67697;BME280;54486;51.442;6.778;2023-04-29T03:35:15;101276.13;;;9.88;100.00
67697;BME280;54486;51.442;6.778;2023-04-29T03:37:44;101283.94;;;9.89;100.00
67697;BME280;54486;51.442;6.778;2023-04-29T03:40:13;101283.09;;;9.89;100.00
67697;BME280;54486;51.442;6.778;2023-04-29T03:42:41;101283.91;;;9.86;100.00
67697;BME280;54486;51.442;6.778;2023-04-29T03:45:09;101285.69;;;9.86;100.00
67697;BME280;54486;51.442;6.778;2023-04-29T03:47:36;101287.41;;;9.82;100.00
67697;BME280;54486;51.442;6.778;2023-04-29T03:50:04;101285.66;;;9.84;100.00
67697;BME280;54486;51.442;6.778;2023-04-29T03:52:33;101289.13;;;9.83;100.00
67697;BME280;54486;51.442;6.778;2023-04-29T03:55:04;101283.03;;;9.83;100.00
67697;BME280;54486;51.442;6.778;2023-04-29T03:57:31;101284.78;;;9.84;100.00
67697;BME280;54486;51.442;6.778;2023-04-29T03:59:59;101284.78;;;9.81;100.00
67697;BME280;54486;51.442;6.778;2023-04-29T04:02:27;101292.63;;;9.82;100.00
67697;BME280;54486;51.442;6.778;2023-04-29T04:04:54;101292.63;;;9.82;100.00
67697;BME280;54486;51.442;6.778;2023-04-29T04:07:22;101293.44;;;9.80;100.00
67697;BME280;54486;51.442;6.778;2023-04-29T04:09:50;101299.53;;;9.80;100.00
67697;BME280;54486;51.442;6.778;2023-04-29T04:12:17;101303.03;;;9.79;100.00
67697;BME280;54486;51.442;6.778;2023-04-29T04:14:44;101303.03;;;9.82;100.00
67697;BME280;54486;51.442;6.778;2023-04-29T04:17:12;101306.50;;;9.78;100.00
67697;BME280;54486;51.442;6.778;2023-04-29T04:19:39;101306.50;;;9.78;100.00
67697;BME280;54486;51.442;6.778;2023-04-29T04:22:06;101312.56;;;9.77;100.00
67697;BME280;54486;51.442;6.778;2023-04-29T04:24:33;101311.72;;;9.84;100.00
67697;BME280;54486;51.442;6.778;2023-04-29T04:27:00;101311.69;;;9.75;100.00
67697;BME280;54486;51.442;6.778;2023-04-29T04:29:28;101315.19;;;9.76;100.00
67697;BME280;54486;51.442;6.778;2023-04-29T04:31:55;101316.91;;;9.75;100.00
67697;BME280;54486;51.442;6.778;2023-04-29T04:34:23;101318.63;;;9.73;100.00
67697;BME280;54486;51.442;6.778;2023-04-29T04:36:50;101327.31;;;9.72;100.00
67697;BME280;54486;51.442;6.778;2023-04-29T04:39:18;101320.34;;;9.71;100.00
67697;BME280;54486;51.442;6.778;2023-04-29T04:41:46;101327.31;;;9.69;100.00
67697;BME280;54486;51.442;6.778;2023-04-29T04:44:13;101324.69;;;9.69;100.00
67697;BME280;54486;51.442;6.778;2023-04-29T04:46:39;101329.03;;;9.73;100.00
67697;BME280;54486;51.442;6.778;2023-04-29T04:49:08;101334.28;;;9.76;100.00
67697;BME280;54486;51.442;6.778;2023-04-29T04:51:35;101337.75;;;9.75;100.00
67697;BME280;54486;51.442;6.778;2023-04-29T04:54:02;101348.19;;;9.78;100.00
67697;BME280;54486;51.442;6.778;2023-04-29T04:56:29;101344.72;;;9.79;100.00
67697;BME280;54486;51.442;6.778;2023-04-29T04:58:56;101346.44;;;9.80;100.00
67697;BME280;54486;51.442;6.778;2023-04-29T05:01:24;101346.44;;;9.77;100.00
67697;BME280;54486;51.442;6.778;2023-04-29T05:03:52;101352.56;;;9.84;100.00
67697;BME280;54486;51.442;6.778;2023-04-29T05:06:20;101356.88;;;9.83;100.00
67697;BME280;54486;51.442;6.778;2023-04-29T05:08:46;101360.41;;;9.85;100.00
67697;BME280;54486;51.442;6.778;2023-04-29T05:11:17;101356.91;;;9.86;100.00
67697;BME280;54486;51.442;6.778;2023-04-29T05:13:45;101366.50;;;9.89;100.00
67697;BME280;54486;51.442;6.778;2023-04-29T05:16:12;101358.66;;;9.90;100.00
67697;BME280;54486;51.442;6.778;2023-04-29T05:18:40;101369.09;;;9.90;100.00
67697;BME280;54486;51.442;6.778;2023-04-29T05:21:10;101377.78;;;9.92;100.00
67697;BME280;54486;51.442;6.778;2023-04-29T05:23:38;101363.91;;;9.93;100.00
67697;BME280;54486;51.442;6.778;2023-04-29T05:26:05;101377.84;;;9.95;100.00
67697;BME280;54486;51.442;6.778;2023-04-29T05:28:31;101384.78;;;9.99;100.00
67697;BME280;54486;51.442;6.778;2023-04-29T05:30:58;101383.06;;;9.98;100.00
67697;BME280;54486;51.442;6.778;2023-04-29T05:33:25;101396.09;;;10.00;100.00
67697;BME280;54486;51.442;6.778;2023-04-29T05:35:52;101388.28;;;9.98;100.00
67697;BME280;54486;51.442;6.778;2023-04-29T05:38:19;101390.00;;;9.99;100.00
67697;BME280;54486;51.442;6.778;2023-04-29T05:40:46;101396.09;;;10.03;100.00
67697;BME280;54486;51.442;6.778;2023-04-29T05:43:15;101402.22;;;10.09;100.00
67697;BME280;54486;51.442;6.778;2023-04-29T05:45:45;101402.22;;;10.09;100.00
67697;BME280;54486;51.442;6.778;2023-04-29T05:48:13;101403.97;;;10.10;100.00
67697;BME280;54486;51.442;6.778;2023-04-29T05:50:40;101418.72;;;10.08;100.00
67697;BME280;54486;51.442;6.778;2023-04-29T05:53:08;101407.41;;;10.03;100.00
67697;BME280;54486;51.442;6.778;2023-04-29T05:55:34;101412.63;;;10.05;100.00
67697;BME280;54486;51.442;6.778;2023-04-29T05:58:02;101421.31;;;10.08;100.00
67697;BME280;54486;51.442;6.778;2023-04-29T06:00:30;101430.03;;;10.10;100.00
67697;BME280;54486;51.442;6.778;2023-04-29T06:02:57;101423.09;;;10.13;100.00
67697;BME280;54486;51.442;6.778;2023-04-29T06:05:25;101430.97;;;10.14;100.00
67697;BME280;54486;51.442;6.778;2023-04-29T06:07:53;101428.31;;;10.13;100.00
67697;BME280;54486;51.442;6.778;2023-04-29T06:10:23;101437.06;;;10.15;100.00
67697;BME280;54486;51.442;6.778;2023-04-29T06:12:50;101443.94;;;10.13;100.00
67697;BME280;54486;51.442;6.778;2023-04-29T06:15:18;101444.00;;;10.16;100.00
67697;BME280;54486;51.442;6.778;2023-04-29T06:17:45;101444.00;;;10.16;100.00
67697;BME280;54486;51.442;6.778;2023-04-29T06:20:12;101444.00;;;10.19;100.00
67697;BME280;54486;51.442;6.778;2023-04-29T06:22:40;101445.75;;;10.17;100.00
67697;BME280;54486;51.442;6.778;2023-04-29T06:25:08;101457.94;;;10.21;100.00
67697;BME280;54486;51.442;6.778;2023-04-29T06:27:35;101459.66;;;10.19;100.00
67697;BME280;54486;51.442;6.778;2023-04-29T06:30:02;101475.31;;;10.22;100.00
67697;BME280;54486;51.442;6.778;2023-04-29T06:32:29;101464.84;;;10.16;100.00
67697;BME280;54486;51.442;6.778;2023-04-29T06:34:56;101469.28;;;10.27;100.00
67697;BME280;54486;51.442;6.778;2023-04-29T06:37:23;101465.78;;;10.25;100.00
67697;BME280;54486;51.442;6.778;2023-04-29T06:39:50;101477.03;;;10.17;100.00
67697;BME280;54486;51.442;6.778;2023-04-29T06:42:18;101477.91;;;10.16;100.00
67697;BME280;54486;51.442;6.778;2023-04-29T06:44:45;101474.44;;;10.18;100.00
67697;BME280;54486;51.442;6.778;2023-04-29T06:47:12;101480.53;;;10.19;100.00
67697;BME280;54486;51.442;6.778;2023-04-29T06:49:40;101480.53;;;10.25;100.00
67697;BME280;54486;51.442;6.778;2023-04-29T06:52:09;101478.84;;;10.27;100.00
67697;BME280;54486;51.442;6.778;2023-04-29T06:54:36;101485.75;;;10.25;100.00
67697;BME280;54486;51.442;6.778;2023-04-29T06:57:03;101489.28;;;10.27;100.00
67697;BME280;54486;51.442;6.778;2023-04-29T06:59:30;101497.97;;;10.29;100.00
67697;BME280;54486;51.442;6.778;2023-04-29T07:01:59;101491.91;;;10.36;100.00
67697;BME280;54486;51.442;6.778;2023-04-29T07:04:26;101498.00;;;10.38;100.00
67697;BME280;54486;51.442;6.778;2023-04-29T07:06:53;101500.63;;;10.41;100.00
67697;BME280;54486;51.442;6.778;2023-04-29T07:09:21;101505.00;;;10.45;100.00
67697;BME280;54486;51.442;6.778;2023-04-29T07:11:49;101511.97;;;10.46;100.00
67697;BME280;54486;51.442;6.778;2023-04-29T07:14:16;101501.56;;;10.52;100.00
67697;BME280;54486;51.442;6.778;2023-04-29T07:16:43;101515.47;;;10.51;100.00
67697;BME280;54486;51.442;6.778;2023-04-29T07:19:10;101513.78;;;10.56;100.00
67697;BME280;54486;51.442;6.778;2023-04-29T07:21:37;101522.47;;;10.58;100.00
67697;BME280;54486;51.442;6.778;2023-04-29T07:24:05;101525.91;;;10.51;100.00
67697;BME280;54486;51.442;6.778;2023-04-29T07:26:32;101530.28;;;10.52;100.00
67697;BME280;54486;51.442;6.778;2023-04-29T07:28:59;101530.28;;;10.52;100.00
67697;BME280;54486;51.442;6.778;2023-04-29T07:31:27;101539.81;;;10.53;100.00
67697;BME280;54486;51.442;6.778;2023-04-29T07:33:54;101543.28;;;10.43;100.00
67697;BME280;54486;51.442;6.778;2023-04-29T07:36:21;101544.13;;;10.39;100.00
67697;BME280;54486;51.442;6.778;2023-04-29T07:38:48;101546.72;;;10.39;100.00
67697;BME280;54486;51.442;6.778;2023-04-29T07:41:15;101556.28;;;10.37;100.00
67697;BME280;54486;51.442;6.778;2023-04-29T07:43:43;101556.31;;;10.40;100.00
67697;BME280;54486;51.442;6.778;2023-04-29T07:46:10;101565.84;;;10.38;100.00
67697;BME280;54486;51.442;6.778;2023-04-29T07:48:38;101564.13;;;10.40;100.00
67697;BME280;54486;51.442;6.778;2023-04-29T07:51:05;101564.97;;;10.37;100.00
67697;BME280;54486;51.442;6.778;2023-04-29T07:53:32;101568.44;;;10.35;100.00
67697;BME280;54486;51.442;6.778;2023-04-29T07:56:04;101566.69;;;10.35;100.00
67697;BME280;54486;51.442;6.778;2023-04-29T07:58:32;101571.06;;;10.36;100.00
67697;BME280;54486;51.442;6.778;2023-04-29T08:01:10;101577.16;;;10.37;100.00
67697;BME280;54486;51.442;6.778;2023-04-29T08:03:38;101578.00;;;10.37;100.00
67697;BME280;54486;51.442;6.778;2023-04-29T08:06:07;101581.50;;;10.38;100.00
67697;BME280;54486;51.442;6.778;2023-04-29T08:08:35;101575.41;;;10.37;100.00
67697;BME280;54486;51.442;6.778;2023-04-29T08:11:02;101579.78;;;10.40;100.00
67697;BME280;54486;51.442;6.778;2023-04-29T08:13:29;101588.50;;;10.45;100.00
67697;BME280;54486;51.442;6.778;2023-04-29T08:15:57;101584.19;;;10.48;100.00
67697;BME280;54486;51.442;6.778;2023-04-29T08:18:24;101588.53;;;10.51;100.00
67697;BME280;54486;51.442;6.778;2023-04-29T08:20:51;101591.19;;;10.55;100.00
67697;BME280;54486;51.442;6.778;2023-04-29T08:23:19;101590.31;;;10.55;100.00
67697;BME280;54486;51.442;6.778;2023-04-29T08:25:46;101602.50;;;10.56;100.00
67697;BME280;54486;51.442;6.778;2023-04-29T08:28:13;101600.75;;;10.55;100.00
67697;BME280;54486;51.442;6.778;2023-04-29T08:30:40;101607.72;;;10.56;100.00
67697;BME280;54486;51.442;6.778;2023-04-29T08:33:07;101610.38;;;10.65;100.00
67697;BME280;54486;51.442;6.778;2023-04-29T08:35:35;101606.00;;;10.61;100.00
67697;BME280;54486;51.442;6.778;2023-04-29T08:38:05;101614.69;;;10.60;100.00
67697;BME280;54486;51.442;6.778;2023-04-29T08:40:34;101611.22;;;10.61;100.00
67697;BME280;54486;51.442;6.778;2023-04-29T08:43:02;101618.19;;;10.59;100.00
67697;BME280;54486;51.442;6.778;2023-04-29T08:45:32;101619.03;;;10.61;100.00
67697;BME280;54486;51.442;6.778;2023-04-29T08:48:01;101622.53;;;10.63;100.00
67697;BME280;54486;51.442;6.778;2023-04-29T08:50:30;101624.31;;;10.66;100.00
67697;BME280;54486;51.442;6.778;2023-04-29T08:52:57;101617.34;;;10.69;100.00
67697;BME280;54486;51.442;6.778;2023-04-29T08:55:24;101628.69;;;10.74;100.00
67697;BME280;54486;51.442;6.778;2023-04-29T08:57:53;101629.56;;;10.76;100.00
67697;BME280;54486;51.442;6.778;2023-04-29T09:00:21;101632.19;;;10.76;99.90
67697;BME280;54486;51.442;6.778;2023-04-29T09:02:52;101636.50;;;10.76;99.97
67697;BME280;54486;51.442;6.778;2023-04-29T09:05:20;101636.53;;;10.79;100.00
67697;BME280;54486;51.442;6.778;2023-04-29T09:07:49;101638.34;;;10.84;100.00
67697;BME280;54486;51.442;6.778;2023-04-29T09:10:17;101643.59;;;10.90;100.00
67697;BME280;54486;51.442;6.778;2023-04-29T09:12:44;101640.09;;;10.90;99.21
67697;BME280;54486;51.442;6.778;2023-04-29T09:15:12;101641.03;;;11.08;99.04
67697;BME280;54486;51.442;6.778;2023-04-29T09:17:43;101644.50;;;11.01;99.40
67697;BME280;54486;51.442;6.778;2023-04-29T09:22:48;101654.94;;;11.04;97.87
67697;BME280;54486;51.442;6.778;2023-04-29T09:25:15;101657.59;;;11.06;98.00
67697;BME280;54486;51.442;6.778;2023-04-29T09:27:42;101663.72;;;11.12;99.41
67697;BME280;54486;51.442;6.778;2023-04-29T09:30:09;101662.84;;;11.18;99.70
67697;BME280;54486;51.442;6.778;2023-04-29T09:32:38;101663.72;;;11.19;97.85
67697;BME280;54486;51.442;6.778;2023-04-29T09:35:28;101669.84;;;11.25;98.22
67697;BME280;54486;51.442;6.778;2023-04-29T09:38:09;101669.00;;;11.31;99.39
67697;BME280;54486;51.442;6.778;2023-04-29T09:40:37;101668.16;;;11.32;99.27
67697;BME280;54486;51.442;6.778;2023-04-29T09:43:22;101677.72;;;11.33;97.53
67697;BME280;54486;51.442;6.778;2023-04-29T09:45:50;101673.38;;;11.38;97.77
67697;BME280;54486;51.442;6.778;2023-04-29T09:48:17;101672.53;;;11.42;98.00
67697;BME280;54486;51.442;6.778;2023-04-29T09:50:58;101679.53;;;11.52;97.34
67697;BME280;54486;51.442;6.778;2023-04-29T09:53:28;101680.44;;;11.63;96.27
67697;BME280;54486;51.442;6.778;2023-04-29T09:55:59;101676.97;;;11.65;92.59
67697;BME280;54486;51.442;6.778;2023-04-29T09:58:35;101681.38;;;11.74;93.68
67697;BME280;54486;51.442;6.778;2023-04-29T10:01:06;101676.19;;;11.86;94.36
67697;BME280;54486;51.442;6.778;2023-04-29T10:03:37;101683.19;;;11.99;95.12
67697;BME280;54486;51.442;6.778;2023-04-29T10:06:06;101684.91;;;12.03;93.44
67697;BME280;54486;51.442;6.778;2023-04-29T10:08:34;101684.91;;;12.09;93.15
67697;BME280;54486;51.442;6.778;2023-04-29T10:11:03;101697.13;;;12.13;93.55
67697;BME280;54486;51.442;6.778;2023-04-29T10:13:30;101693.66;;;12.05;91.13
67697;BME280;54486;51.442;6.778;2023-04-29T10:16:20;101696.25;;;12.05;91.22
67697;BME280;54486;51.442;6.778;2023-04-29T10:18:54;101690.13;;;12.00;90.23
67697;BME280;54486;51.442;6.778;2023-04-29T10:21:26;101696.25;;;12.04;90.44
67697;BME280;54486;51.442;6.778;2023-04-29T10:23:56;101695.38;;;12.06;91.04
67697;BME280;54486;51.442;6.778;2023-04-29T10:26:27;101696.25;;;12.10;90.59
67697;BME280;54486;51.442;6.778;2023-04-29T10:28:55;101693.66;;;12.11;89.81
67697;BME280;54486;51.442;6.778;2023-04-29T10:31:26;101700.63;;;12.18;90.88
67697;BME280;54486;51.442;6.778;2023-04-29T10:33:55;101700.63;;;12.25;91.33
67697;BME280;54486;51.442;6.778;2023-04-29T10:36:30;101703.25;;;12.37;91.24
67697;BME280;54486;51.442;6.778;2023-04-29T10:39:00;101706.75;;;12.49;90.00
67697;BME280;54486;51.442;6.778;2023-04-29T10:41:33;101704.13;;;12.69;89.65
67697;BME280;54486;51.442;6.778;2023-04-29T10:44:01;101705.84;;;12.85;87.82
67697;BME280;54486;51.442;6.778;2023-04-29T10:46:30;101704.91;;;13.04;87.71
67697;BME280;54486;51.442;6.778;2023-04-29T10:49:02;101709.28;;;13.02;83.69
67697;BME280;54486;51.442;6.778;2023-04-29T10:51:32;101710.16;;;13.04;83.84
67697;BME280;54486;51.442;6.778;2023-04-29T10:54:05;101705.81;;;13.09;85.16
67697;BME280;54486;51.442;6.778;2023-04-29T10:59:14;101715.41;;;13.13;83.92
67697;BME280;54486;51.442;6.778;2023-04-29T11:01:47;101708.38;;;13.26;83.97
67697;BME280;54486;51.442;6.778;2023-04-29T11:04:15;101711.81;;;13.39;82.33
67697;BME280;54486;51.442;6.778;2023-04-29T11:06:50;101716.22;;;13.31;80.18
67697;BME280;54486;51.442;6.778;2023-04-29T11:09:20;101723.25;;;13.22;80.68
67697;BME280;54486;51.442;6.778;2023-04-29T11:17:03;101717.97;;;13.32;81.29
67697;BME280;54486;51.442;6.778;2023-04-29T11:19:33;101720.50;;;13.54;81.23
67697;BME280;54486;51.442;6.778;2023-04-29T11:24:58;101708.78;;;14.14;79.73
67697;BME280;54486;51.442;6.778;2023-04-29T11:27:39;101710.44;;;14.24;76.48
67697;BME280;54486;51.442;6.778;2023-04-29T11:30:06;101717.53;;;14.13;75.58
67697;BME280;54486;51.442;6.778;2023-04-29T11:32:38;101715.66;;;14.32;77.67
67697;BME280;54486;51.442;6.778;2023-04-29T11:35:17;101708.63;;;14.39;74.80
67697;BME280;54486;51.442;6.778;2023-04-29T11:37:46;101713.91;;;14.36;74.25
67697;BME280;54486;51.442;6.778;2023-04-29T11:40:14;101712.03;;;14.50;75.89
67697;BME280;54486;51.442;6.778;2023-04-29T11:42:47;101712.63;;;14.79;76.21
67697;BME280;54486;51.442;6.778;2023-04-29T11:45:19;101721.16;;;15.02;75.52
67697;BME280;54486;51.442;6.778;2023-04-29T11:47:47;101717.56;;;15.12;75.00
67697;BME280;54486;51.442;6.778;2023-04-29T11:50:16;101713.00;;;15.26;74.47
67697;BME280;54486;51.442;6.778;2023-04-29T11:52:46;101707.63;;;15.35;75.21
67697;BME280;54486;51.442;6.778;2023-04-29T11:55:13;101707.41;;;15.55;74.91
67697;BME280;54486;51.442;6.778;2023-04-29T11:57:42;101709.88;;;15.67;69.83
67697;BME280;54486;51.442;6.778;2023-04-29T12:00:10;101712.88;;;15.35;71.56
67697;BME280;54486;51.442;6.778;2023-04-29T12:02:45;101712.94;;;15.32;71.87
67697;BME280;54486;51.442;6.778;2023-04-29T12:05:13;101718.16;;;15.35;72.40
67697;BME280;54486;51.442;6.778;2023-04-29T12:07:42;101709.34;;;15.40;70.55
67697;BME280;54486;51.442;6.778;2023-04-29T12:10:10;101710.75;;;15.68;70.10
67697;BME280;54486;51.442;6.778;2023-04-29T12:12:41;101706.16;;;15.83;68.10
67697;BME280;54486;51.442;6.778;2023-04-29T12:15:13;101706.94;;;15.90;66.38
67697;BME280;54486;51.442;6.778;2023-04-29T12:17:41;101702.44;;;15.97;69.75
67697;BME280;54486;51.442;6.778;2023-04-29T12:20:10;101706.84;;;15.96;68.64
67697;BME280;54486;51.442;6.778;2023-04-29T12:22:38;101711.38;;;15.88;66.84
67697;BME280;54486;51.442;6.778;2023-04-29T12:25:06;101703.78;;;15.64;66.94
67697;BME280;54486;51.442;6.778;2023-04-29T12:27:34;101701.38;;;15.47;69.58
67697;BME280;54486;51.442;6.778;2023-04-29T12:30:06;101712.09;;;15.30;69.20
67697;BME280;54486;51.442;6.778;2023-04-29T12:32:34;101710.47;;;15.16;69.91
67697;BME280;54486;51.442;6.778;2023-04-29T12:35:03;101715.03;;;15.00;70.29
67697;BME280;54486;51.442;6.778;2023-04-29T12:37:30;101713.38;;;14.90;71.52
67697;BME280;54486;51.442;6.778;2023-04-29T12:39:58;101716.16;;;14.79;69.97
67697;BME280;54486;51.442;6.778;2023-04-29T12:42:31;101715.25;;;14.82;71.35
67697;BME280;54486;51.442;6.778;2023-04-29T12:44:59;101713.41;;;14.87;71.30
67697;BME280;54486;51.442;6.778;2023-04-29T12:47:31;101725.56;;;15.00;73.06
67697;BME280;54486;51.442;6.778;2023-04-29T12:49:59;101718.44;;;15.10;71.76
67697;BME280;54486;51.442;6.778;2023-04-29T12:52:26;101720.09;;;15.21;69.91
67697;BME280;54486;51.442;6.778;2023-04-29T12:54:53;101714.59;;;15.38;71.39
67697;BME280;54486;51.442;6.778;2023-04-29T12:57:21;101719.69;;;15.55;70.67
67697;BME280;54486;51.442;6.778;2023-04-29T12:59:49;101722.16;;;15.67;70.31
67697;BME280;54486;51.442;6.778;2023-04-29T13:02:17;101721.19;;;15.74;67.76
67697;BME280;54486;51.442;6.778;2023-04-29T13:04:44;101722.94;;;15.75;65.61
67697;BME280;54486;51.442;6.778;2023-04-29T13:07:12;101717.81;;;15.66;67.46
67697;BME280;54486;51.442;6.778;2023-04-29T13:09:39;101726.66;;;15.59;67.96
67697;BME280;54486;51.442;6.778;2023-04-29T13:12:07;101723.28;;;15.51;65.43
67697;BME280;54486;51.442;6.778;2023-04-29T13:14:35;101721.56;;;15.44;67.03
67697;BME280;54486;51.442;6.778;2023-04-29T13:17:03;101732.97;;;15.44;68.13
67697;BME280;54486;51.442;6.778;2023-04-29T13:19:31;101730.31;;;15.49;67.11
67697;BME280;54486;51.442;6.778;2023-04-29T13:22:16;101733.81;;;15.48;68.49
67697;BME280;54486;51.442;6.778;2023-04-29T13:24:43;101732.00;;;15.53;70.28
67697;BME280;54486;51.442;6.778;2023-04-29T13:27:10;101730.22;;;15.55;70.05